createdAt,value
2019-04-04T00:01:48.686Z,10.11
2019-04-04T00:04:22.066Z,10.06
2019-04-04T00:06:57.823Z,10.03
2019-04-04T00:09:28.461Z,10.03
2019-04-04T00:12:00.460Z,9.99
2019-04-04T00:14:31.872Z,9.92
2019-04-04T00:17:03.779Z,9.88
2019-04-04T00:19:35.663Z,9.81
2019-04-04T00:22:07.624Z,9.77
2019-04-04T00:24:39.921Z,9.81
2019-04-04T00:27:13.858Z,9.78
2019-04-04T00:29:47.921Z,9.85
2019-04-04T00:32:21.117Z,10.04
2019-04-04T00:34:52.084Z,9.94
2019-04-04T00:37:24.179Z,9.87
2019-04-04T00:39:55.483Z,9.79
2019-04-04T00:42:27.443Z,9.80
2019-04-04T00:44:59.449Z,9.66
2019-04-04T00:47:32.644Z,9.65
2019-04-04T00:50:06.673Z,9.57
2019-04-04T00:52:40.742Z,9.48
2019-04-04T00:55:15.552Z,9.54
2019-04-04T00:57:45.784Z,9.51
2019-04-04T01:00:17.701Z,9.43
2019-04-04T01:02:49.783Z,9.49
2019-04-04T01:05:21.862Z,9.52
2019-04-04T01:07:53.715Z,9.45
2019-04-04T01:10:25.702Z,9.41
2019-04-04T01:12:57.698Z,9.26
2019-04-04T01:15:30.842Z,9.06
2019-04-04T01:18:03.999Z,8.86
2019-04-04T01:20:37.173Z,9.07
2019-04-04T01:23:09.191Z,8.95
2019-04-04T01:25:42.261Z,9.13
2019-04-04T01:28:14.231Z,9.27
2019-04-04T01:30:46.191Z,9.04
2019-04-04T01:33:19.902Z,8.96
2019-04-04T01:35:53.686Z,8.78
2019-04-04T01:38:27.110Z,8.81
2019-04-04T01:40:59.173Z,8.72
2019-04-04T01:43:31.043Z,8.68
2019-04-04T01:46:02.901Z,8.68
2019-04-04T01:48:34.711Z,8.60
2019-04-04T01:51:07.939Z,8.56
2019-04-04T01:53:40.099Z,8.66
2019-04-04T01:56:11.343Z,8.86
2019-04-04T01:58:44.918Z,8.77
2019-04-04T02:01:17.127Z,8.71
2019-04-04T02:03:49.008Z,8.62
2019-04-04T02:06:20.623Z,8.67
2019-04-04T02:08:52.381Z,8.55
2019-04-04T02:11:24.319Z,8.47
2019-04-04T02:13:56.199Z,8.52
2019-04-04T02:16:28.003Z,8.42
2019-04-04T02:18:59.870Z,8.46
2019-04-04T02:21:31.757Z,8.61
2019-04-04T02:24:03.670Z,8.54
2019-04-04T02:26:36.148Z,8.58
2019-04-04T02:29:09.040Z,8.55
2019-04-04T02:31:52.955Z,8.42
2019-04-04T02:34:22.041Z,8.31
2019-04-04T02:36:53.976Z,8.87
2019-04-04T02:39:27.298Z,8.82
2019-04-04T02:41:59.197Z,8.53
2019-04-04T02:44:32.108Z,8.39
2019-04-04T02:47:04.722Z,8.29
2019-04-04T02:49:35.941Z,8.49
2019-04-04T02:52:07.735Z,8.47
2019-04-04T02:54:39.626Z,8.27
2019-04-04T02:57:11.414Z,8.13
2019-04-04T02:59:43.254Z,8.19
2019-04-04T03:02:15.158Z,8.18
2019-04-04T03:04:47.321Z,8.32
2019-04-04T03:07:19.143Z,8.52
2019-04-04T03:09:51.163Z,8.34
2019-04-04T03:12:25.686Z,8.14
2019-04-04T03:14:56.126Z,7.93
2019-04-04T03:17:31.722Z,7.84
2019-04-04T03:20:03.235Z,7.91
2019-04-04T03:22:35.134Z,7.90
2019-04-04T03:25:07.244Z,7.72
2019-04-04T03:27:39.069Z,7.61
2019-04-04T03:30:14.411Z,7.48
2019-04-04T03:32:51.404Z,7.51
2019-04-04T03:35:26.088Z,7.41
2019-04-04T03:37:51.676Z,7.26
2019-04-04T03:40:25.711Z,7.45
2019-04-04T03:42:57.587Z,7.75
2019-04-04T03:45:29.400Z,7.77
2019-04-04T03:48:01.183Z,7.71
2019-04-04T03:50:33.028Z,7.53
2019-04-04T03:53:04.858Z,7.39
2019-04-04T03:55:38.863Z,7.36
2019-04-04T03:58:10.678Z,7.29
2019-04-04T04:00:42.576Z,7.34
2019-04-04T04:03:14.626Z,7.49
2019-04-04T04:05:46.494Z,7.72
2019-04-04T04:08:21.356Z,7.70
2019-04-04T04:10:52.953Z,7.64
2019-04-04T04:13:25.331Z,7.58
2019-04-04T04:15:56.523Z,7.45
2019-04-04T04:18:27.594Z,7.55
2019-04-04T04:20:59.374Z,7.70
2019-04-04T04:23:31.235Z,7.64
2019-04-04T04:26:03.194Z,7.45
2019-04-04T04:28:35.073Z,7.28
2019-04-04T04:31:06.906Z,7.09
2019-04-04T04:33:38.702Z,7.05
2019-04-04T04:36:15.348Z,7.16
2019-04-04T04:38:43.452Z,7.26
2019-04-04T04:41:14.587Z,7.36
2019-04-04T04:43:46.375Z,7.41
2019-04-04T04:46:18.210Z,7.20
2019-04-04T04:48:50.051Z,7.10
2019-04-04T04:51:21.282Z,7.10
2019-04-04T04:53:53.055Z,7.42
2019-04-04T04:56:24.947Z,7.41
2019-04-04T04:58:56.124Z,7.40
2019-04-04T05:01:27.853Z,7.32
2019-04-04T05:04:02.391Z,7.40
2019-04-04T05:06:35.235Z,7.50
2019-04-04T05:09:07.407Z,7.55
2019-04-04T05:11:39.297Z,7.57
2019-04-04T05:14:10.505Z,7.48
2019-04-04T05:16:42.405Z,7.56
2019-04-04T05:19:14.268Z,7.61
2019-04-04T05:21:46.251Z,7.64
2019-04-04T05:24:18.724Z,7.65
2019-04-04T05:26:50.050Z,7.67
2019-04-04T05:29:21.872Z,7.71
2019-04-04T05:31:53.870Z,7.79
2019-04-04T05:34:25.794Z,7.92
2019-04-04T05:36:57.614Z,7.96
2019-04-04T05:39:28.805Z,7.98
2019-04-04T05:42:00.382Z,8.10
2019-04-04T05:44:34.279Z,8.21
2019-04-04T05:47:05.790Z,8.26
2019-04-04T05:49:38.139Z,8.36
2019-04-04T05:52:10.532Z,8.50
2019-04-04T05:54:42.465Z,8.63
2019-04-04T05:57:14.333Z,8.69
2019-04-04T05:59:46.197Z,8.84
2019-04-04T06:02:18.115Z,8.91
2019-04-04T06:04:51.314Z,9.02
2019-04-04T06:07:23.521Z,9.05
2019-04-04T06:09:55.425Z,9.17
2019-04-04T06:12:27.257Z,9.22
2019-04-04T06:15:00.554Z,9.31
2019-04-04T06:17:32.724Z,9.39
2019-04-04T06:20:05.469Z,9.46
2019-04-04T06:22:37.409Z,9.53
2019-04-04T06:25:09.678Z,9.75
2019-04-04T06:27:41.545Z,9.77
2019-04-04T06:30:13.451Z,9.90
2019-04-04T06:32:45.301Z,10.00
2019-04-04T06:35:16.449Z,10.04
2019-04-04T06:37:49.158Z,10.08
2019-04-04T06:40:21.943Z,10.18
2019-04-04T06:42:53.165Z,10.22
2019-04-04T06:45:24.331Z,10.31
2019-04-04T06:47:57.557Z,10.40
2019-04-04T06:50:29.646Z,10.45
2019-04-04T06:53:01.548Z,10.57
2019-04-04T06:55:38.327Z,10.64
2019-04-04T06:58:09.358Z,10.69
2019-04-04T07:00:42.066Z,10.77
2019-04-04T07:03:13.460Z,10.86
2019-04-04T07:05:45.426Z,10.90
2019-04-04T07:08:16.590Z,10.99
2019-04-04T07:10:57.471Z,11.08
2019-04-04T07:13:26.764Z,11.20
2019-04-04T07:16:06.130Z,11.30
2019-04-04T07:18:29.136Z,11.42
2019-04-04T07:21:03.438Z,11.49
2019-04-04T07:23:34.672Z,11.57
2019-04-04T07:26:06.896Z,11.69
2019-04-04T07:28:39.812Z,11.82
2019-04-04T07:31:11.708Z,11.99
2019-04-04T07:33:43.642Z,12.06
2019-04-04T07:36:15.496Z,12.18
2019-04-04T07:38:46.869Z,12.36
2019-04-04T07:41:18.604Z,12.45
2019-04-04T07:43:51.603Z,12.51
2019-04-04T07:46:23.373Z,12.63
2019-04-04T07:48:54.572Z,12.73
2019-04-04T07:51:28.111Z,12.83
2019-04-04T07:54:00.026Z,12.94
2019-04-04T07:56:31.876Z,13.04
2019-04-04T07:59:03.754Z,13.13
2019-04-04T08:01:34.940Z,13.15
2019-04-04T08:04:06.820Z,13.26
2019-04-04T08:06:38.827Z,13.36
2019-04-04T08:09:11.844Z,13.44
2019-04-04T08:11:43.853Z,13.47
2019-04-04T08:14:15.722Z,13.69
2019-04-04T08:16:47.594Z,13.73
2019-04-04T08:19:19.440Z,13.80
2019-04-04T08:21:51.310Z,13.94
2019-04-04T08:24:23.187Z,13.98
2019-04-04T08:26:55.069Z,14.08
2019-04-04T08:29:26.924Z,14.17
2019-04-04T08:31:58.776Z,14.16
2019-04-04T08:34:31.139Z,14.18
2019-04-04T08:37:04.070Z,14.35
2019-04-04T08:39:35.958Z,14.56
2019-04-04T08:42:08.449Z,14.69
2019-04-04T08:44:40.300Z,14.77
2019-04-04T08:47:12.128Z,14.82
2019-04-04T08:49:44.105Z,14.93
2019-04-04T08:52:17.398Z,15.00
2019-04-04T08:54:49.526Z,15.15
2019-04-04T08:57:21.367Z,15.20
2019-04-04T08:59:52.582Z,15.22
2019-04-04T09:02:24.481Z,15.34
2019-04-04T09:04:55.645Z,15.33
2019-04-04T09:07:27.841Z,15.39
2019-04-04T09:09:59.766Z,15.43
2019-04-04T09:12:31.779Z,15.52
2019-04-04T09:15:02.990Z,15.53
2019-04-04T09:17:34.200Z,15.56
2019-04-04T09:20:09.480Z,15.68
2019-04-04T09:22:41.229Z,15.66
2019-04-04T09:25:13.880Z,15.69
2019-04-04T09:27:45.135Z,15.88
2019-04-04T09:30:18.855Z,16.02
2019-04-04T09:32:50.739Z,16.02
2019-04-04T09:35:22.624Z,16.09
2019-04-04T09:37:54.551Z,16.16
2019-04-04T09:40:26.426Z,16.26
2019-04-04T09:42:58.342Z,16.36
2019-04-04T09:45:30.727Z,16.30
2019-04-04T09:48:02.623Z,16.38
2019-04-04T09:50:43.219Z,16.53
2019-04-04T09:53:15.080Z,16.52
2019-04-04T09:55:46.939Z,16.52
2019-04-04T09:58:18.892Z,16.67
2019-04-04T10:00:51.513Z,16.77
2019-04-04T10:03:23.433Z,16.81
2019-04-04T10:05:54.662Z,16.90
2019-04-04T10:08:26.424Z,16.98
2019-04-04T10:10:58.327Z,17.05
2019-04-04T10:13:30.211Z,17.13
2019-04-04T10:16:02.023Z,17.13
2019-04-04T10:18:33.974Z,17.11
2019-04-04T10:21:11.606Z,17.19
2019-04-04T10:23:39.477Z,17.38
2019-04-04T10:26:11.449Z,17.55
2019-04-04T10:28:43.615Z,17.47
2019-04-04T10:31:15.587Z,17.51
2019-04-04T10:33:47.504Z,17.73
2019-04-04T10:36:19.434Z,17.91
2019-04-04T10:38:50.644Z,17.94
2019-04-04T10:41:22.547Z,17.87
2019-04-04T10:43:54.387Z,18.01
2019-04-04T10:46:26.339Z,18.01
2019-04-04T10:48:57.573Z,18.07
2019-04-04T10:51:29.377Z,18.15
2019-04-04T10:54:01.383Z,18.22
2019-04-04T10:56:33.365Z,18.33
2019-04-04T10:59:05.458Z,18.45
2019-04-04T11:01:36.643Z,18.54
2019-04-04T11:04:08.635Z,18.63
2019-04-04T11:06:39.928Z,18.64
2019-04-04T11:09:11.893Z,18.72
2019-04-04T11:11:43.942Z,18.85
2019-04-04T11:14:15.871Z,18.89
2019-04-04T11:16:47.053Z,18.91
2019-04-04T11:19:30.373Z,19.03
2019-04-04T11:21:51.692Z,19.00
2019-04-04T11:24:23.057Z,19.05
2019-04-04T11:26:54.951Z,19.12
2019-04-04T11:29:26.902Z,19.29
2019-04-04T11:31:58.122Z,19.19
2019-04-04T11:34:29.242Z,19.16
2019-04-04T11:37:01.234Z,19.22
2019-04-04T11:39:32.524Z,19.25
2019-04-04T11:42:03.734Z,19.31
2019-04-04T11:44:35.588Z,19.33
2019-04-04T11:47:06.773Z,19.39
2019-04-04T11:49:37.940Z,19.29
2019-04-04T11:52:09.811Z,19.24
2019-04-04T11:55:01.521Z,19.19
2019-04-04T11:57:34.042Z,19.38
2019-04-04T12:00:06.019Z,19.54
2019-04-04T12:02:39.021Z,19.47
2019-04-04T12:05:10.347Z,19.41
2019-04-04T12:07:42.179Z,19.42
2019-04-04T12:10:14.622Z,19.56
2019-04-04T12:12:46.456Z,19.56
2019-04-04T12:15:20.090Z,19.59
2019-04-04T12:17:53.154Z,19.63
2019-04-04T12:20:25.158Z,19.54
2019-04-04T12:22:57.160Z,19.62
2019-04-04T12:25:28.462Z,19.46
2019-04-04T12:28:00.350Z,19.36
2019-04-04T12:30:32.281Z,19.37
2019-04-04T12:33:04.154Z,19.54
2019-04-04T12:35:36.064Z,19.53
2019-04-04T12:38:08.004Z,19.76
2019-04-04T12:40:39.230Z,19.75
2019-04-04T12:43:11.062Z,19.73
2019-04-04T12:45:43.002Z,19.71
2019-04-04T12:48:14.866Z,19.77
2019-04-04T12:50:48.395Z,19.86
2019-04-04T12:53:19.727Z,19.87
2019-04-04T12:55:50.862Z,19.87
2019-04-04T12:58:22.636Z,19.87
2019-04-04T13:00:54.900Z,20.05
2019-04-04T13:03:26.762Z,20.01
2019-04-04T13:05:58.685Z,19.88
2019-04-04T13:08:30.843Z,19.95
2019-04-04T13:11:02.062Z,20.07
2019-04-04T13:13:33.949Z,20.09
2019-04-04T13:16:05.099Z,20.18
2019-04-04T13:18:36.938Z,20.35
2019-04-04T13:21:08.863Z,20.26
2019-04-04T13:23:40.770Z,20.15
2019-04-04T13:26:12.182Z,20.12
2019-04-04T13:28:43.930Z,20.01
2019-04-04T13:31:15.292Z,20.20
2019-04-04T13:33:46.448Z,20.31
2019-04-04T13:36:24.662Z,20.23
2019-04-04T13:39:01.914Z,20.20
2019-04-04T13:41:38.788Z,20.22
2019-04-04T13:44:23.447Z,20.33
2019-04-04T13:46:55.602Z,20.57
2019-04-04T13:49:51.321Z,20.70
2019-04-04T13:52:20.302Z,20.84
2019-04-04T13:54:52.135Z,20.92
2019-04-04T13:57:23.464Z,20.97
2019-04-04T13:59:55.396Z,20.93
2019-04-04T14:02:26.656Z,20.85
2019-04-04T14:05:09.172Z,20.87
2019-04-04T14:07:31.604Z,20.71
2019-04-04T14:10:05.659Z,20.86
2019-04-04T14:12:36.544Z,21.04
2019-04-04T14:15:08.977Z,21.07
2019-04-04T14:17:43.489Z,21.06
2019-04-04T14:20:15.275Z,21.11
2019-04-04T14:22:47.739Z,21.14
2019-04-04T14:25:20.689Z,21.14
2019-04-04T14:27:53.642Z,21.01
2019-04-04T14:30:26.687Z,21.02
2019-04-04T14:32:58.089Z,20.92
2019-04-04T14:35:30.013Z,20.81
2019-04-04T14:38:01.921Z,20.84
2019-04-04T14:40:34.399Z,20.86
2019-04-04T14:43:06.349Z,20.60
2019-04-04T14:45:37.553Z,20.58
2019-04-04T14:48:10.982Z,20.49
2019-04-04T14:50:42.931Z,20.53
2019-04-04T14:53:14.877Z,20.61
2019-04-04T14:55:46.093Z,20.52
2019-04-04T14:58:17.912Z,20.51
2019-04-04T15:00:49.910Z,20.47
2019-04-04T15:03:23.173Z,20.59
2019-04-04T15:05:54.374Z,20.66
2019-04-04T15:08:25.463Z,20.83
2019-04-04T15:10:57.355Z,20.76
2019-04-04T15:13:29.382Z,20.69
2019-04-04T15:16:17.666Z,20.63
2019-04-04T15:18:49.600Z,20.62
2019-04-04T15:21:21.515Z,20.66
2019-04-04T15:23:53.435Z,20.73
2019-04-04T15:26:25.616Z,20.76
2019-04-04T15:28:57.706Z,20.74
2019-04-04T15:31:31.157Z,20.60
2019-04-04T15:34:03.185Z,20.52
2019-04-04T15:36:35.074Z,20.54
2019-04-04T15:39:08.503Z,20.49
2019-04-04T15:41:40.507Z,20.39
2019-04-04T15:44:12.492Z,20.32
2019-04-04T15:46:44.502Z,20.36
2019-04-04T15:49:17.400Z,20.27
2019-04-04T15:51:49.328Z,20.29
2019-04-04T15:54:21.286Z,20.15
2019-04-04T15:56:53.326Z,20.11
2019-04-04T15:59:24.552Z,20.08
2019-04-04T16:01:56.471Z,20.16
2019-04-04T16:04:27.780Z,20.10
2019-04-04T16:06:59.694Z,20.15
2019-04-04T16:09:30.935Z,20.17
2019-04-04T16:12:02.916Z,20.23
2019-04-04T16:14:34.840Z,20.32
2019-04-04T16:17:06.973Z,20.30
2019-04-04T16:19:38.876Z,20.45
2019-04-04T16:22:10.816Z,20.47
2019-04-04T16:24:42.832Z,20.54
2019-04-04T16:27:14.874Z,20.56
2019-04-04T16:29:46.958Z,20.46
2019-04-04T16:32:18.176Z,20.46
2019-04-04T16:34:52.447Z,20.38
2019-04-04T16:37:22.819Z,20.37
2019-04-04T16:39:53.971Z,20.27
2019-04-04T16:42:25.800Z,20.23
2019-04-04T16:44:57.724Z,20.29
2019-04-04T16:47:29.687Z,20.34
2019-04-04T16:50:01.688Z,20.32
2019-04-04T16:52:33.892Z,20.33
2019-04-04T16:55:06.436Z,20.28
2019-04-04T16:57:38.355Z,20.19
2019-04-04T17:00:11.624Z,20.14
2019-04-04T17:02:42.948Z,20.15
2019-04-04T17:05:14.746Z,19.96
2019-04-04T17:07:46.731Z,19.75
2019-04-04T17:10:18.180Z,19.52
2019-04-04T17:12:50.139Z,19.30
2019-04-04T17:15:21.542Z,19.26
2019-04-04T17:17:53.452Z,19.14
2019-04-04T17:20:25.670Z,18.96
2019-04-04T17:22:57.088Z,18.75
2019-04-04T17:25:29.030Z,18.74
2019-04-04T17:28:00.262Z,18.84
2019-04-04T17:30:32.389Z,18.86
2019-04-04T17:33:04.594Z,18.69
2019-04-04T17:35:37.098Z,18.70
2019-04-04T17:38:09.162Z,18.75
2019-04-04T17:40:41.247Z,18.41
2019-04-04T17:43:12.806Z,18.38
2019-04-04T17:45:44.084Z,18.38
2019-04-04T17:48:16.556Z,18.11
2019-04-04T17:50:48.432Z,18.07
2019-04-04T17:53:20.320Z,17.99
2019-04-04T17:55:54.833Z,17.91
2019-04-04T17:58:26.345Z,17.82
2019-04-04T18:00:57.605Z,17.47
2019-04-04T18:03:28.858Z,17.16
2019-04-04T18:06:00.872Z,16.96
2019-04-04T18:08:32.895Z,16.92
2019-04-04T18:11:05.167Z,16.76
2019-04-04T18:13:37.183Z,16.73
2019-04-04T18:16:08.654Z,16.51
2019-04-04T18:18:39.906Z,16.41
2019-04-04T18:21:11.775Z,16.21
2019-04-04T18:23:45.715Z,16.10
2019-04-04T18:26:17.312Z,16.01
2019-04-04T18:28:49.409Z,15.94
2019-04-04T18:31:26.259Z,15.83
2019-04-04T18:33:57.551Z,15.65
2019-04-04T18:36:28.959Z,15.72
2019-04-04T18:39:00.195Z,15.57
2019-04-04T18:41:34.143Z,15.42
2019-04-04T18:44:07.855Z,15.29
2019-04-04T18:46:39.291Z,15.34
2019-04-04T18:49:15.755Z,15.24
2019-04-04T18:51:47.202Z,15.26
2019-04-04T18:54:19.242Z,15.12
2019-04-04T18:56:57.592Z,15.13
2019-04-04T18:59:29.934Z,15.11
2019-04-04T19:02:03.523Z,15.23
2019-04-04T19:04:35.484Z,15.14
2019-04-04T19:07:07.560Z,15.18
2019-04-04T19:09:39.654Z,15.03
2019-04-04T19:12:10.872Z,15.03
2019-04-04T19:14:42.222Z,15.03
2019-04-04T19:17:14.154Z,15.05
2019-04-04T19:19:46.084Z,15.03
2019-04-04T19:22:17.540Z,15.09
2019-04-04T19:24:50.055Z,15.02
2019-04-04T19:27:21.866Z,15.04
2019-04-04T19:29:55.473Z,14.99
2019-04-04T19:32:26.751Z,15.04
2019-04-04T19:34:58.654Z,14.95
2019-04-04T19:37:30.571Z,15.06
2019-04-04T19:40:01.933Z,14.86
2019-04-04T19:42:33.909Z,15.07
2019-04-04T19:45:08.785Z,14.79
2019-04-04T19:47:40.142Z,14.78
2019-04-04T19:50:11.656Z,14.72
2019-04-04T19:52:43.657Z,14.78
2019-04-04T19:55:15.725Z,14.76
2019-04-04T19:57:46.993Z,14.77
2019-04-04T20:00:19.604Z,14.47
2019-04-04T20:02:50.903Z,14.35
2019-04-04T20:05:22.682Z,14.45
2019-04-04T20:07:54.668Z,14.40
2019-04-04T20:10:25.909Z,14.50
2019-04-04T20:12:57.761Z,14.48
2019-04-04T20:15:29.688Z,14.44
2019-04-04T20:18:01.550Z,14.31
2019-04-04T20:20:33.963Z,14.29
2019-04-04T20:23:05.824Z,14.34
2019-04-04T20:25:37.715Z,14.21
2019-04-04T20:28:09.015Z,14.32
2019-04-04T20:30:40.920Z,14.29
2019-04-04T20:33:12.802Z,14.16
2019-04-04T20:35:44.790Z,14.20
2019-04-04T20:38:16.598Z,14.20
2019-04-04T20:40:48.018Z,14.01
2019-04-04T20:43:19.807Z,13.96
2019-04-04T20:45:52.006Z,13.87
2019-04-04T20:48:23.875Z,13.97
2019-04-04T20:50:55.821Z,13.87
2019-04-04T20:53:27.678Z,13.84
2019-04-04T20:55:59.950Z,13.80
2019-04-04T20:58:31.102Z,13.76
2019-04-04T21:01:02.342Z,13.88
2019-04-04T21:03:34.218Z,13.80
2019-04-04T21:06:06.129Z,13.73
2019-04-04T21:08:38.963Z,13.66
2019-04-04T21:11:10.873Z,13.73
2019-04-04T21:13:42.165Z,13.55
2019-04-04T21:16:13.951Z,13.56
2019-04-04T21:18:45.879Z,13.54
2019-04-04T21:21:17.194Z,13.45
2019-04-04T21:23:48.897Z,13.34
2019-04-04T21:26:20.124Z,13.49
2019-04-04T21:28:51.259Z,13.48
2019-04-04T21:31:22.406Z,13.44
2019-04-04T21:33:53.476Z,13.35
2019-04-04T21:36:25.287Z,13.21
2019-04-04T21:38:57.205Z,13.22
2019-04-04T21:41:29.030Z,13.21
2019-04-04T21:44:08.837Z,13.42
2019-04-04T21:46:34.390Z,13.36
2019-04-04T21:49:06.277Z,13.21
2019-04-04T21:51:38.109Z,13.02
2019-04-04T21:54:09.928Z,13.00
2019-04-04T21:56:41.824Z,12.95
2019-04-04T21:59:13.689Z,12.77
2019-04-04T22:01:45.875Z,12.77
2019-04-04T22:04:17.665Z,13.00
2019-04-04T22:06:49.567Z,12.93
2019-04-04T22:09:21.571Z,12.81
2019-04-04T22:11:53.427Z,12.72
2019-04-04T22:14:25.357Z,12.77
2019-04-04T22:16:57.248Z,12.65
2019-04-04T22:19:29.221Z,12.70
2019-04-04T22:22:00.411Z,12.52
2019-04-04T22:24:31.597Z,12.56
2019-04-04T22:27:02.967Z,12.51
2019-04-04T22:29:34.138Z,12.46
2019-04-04T22:32:05.953Z,12.59
2019-04-04T22:34:37.741Z,12.56
2019-04-04T22:37:09.585Z,12.50
2019-04-04T22:39:41.401Z,12.36
2019-04-04T22:42:13.181Z,12.33
2019-04-04T22:44:45.424Z,12.54
2019-04-04T22:47:16.523Z,12.48
2019-04-04T22:49:48.353Z,12.36
2019-04-04T22:52:20.172Z,12.37
2019-04-04T22:54:52.001Z,12.38
2019-04-04T22:57:23.858Z,12.48
2019-04-04T22:59:55.799Z,12.30
2019-04-04T23:02:27.747Z,12.41
2019-04-04T23:04:59.632Z,12.35
2019-04-04T23:07:31.521Z,12.42
2019-04-04T23:10:03.439Z,12.16
2019-04-04T23:12:35.301Z,12.25
2019-04-04T23:15:09.389Z,12.30
2019-04-04T23:17:41.295Z,12.39
2019-04-04T23:20:13.177Z,12.34
2019-04-04T23:22:52.786Z,12.46
2019-04-04T23:25:18.765Z,12.24
2019-04-04T23:27:50.592Z,12.12
2019-04-04T23:30:22.461Z,12.39
2019-04-04T23:32:54.406Z,12.39
2019-04-04T23:35:26.207Z,12.38
2019-04-04T23:37:58.048Z,12.03
2019-04-04T23:40:29.884Z,11.75
2019-04-04T23:43:01.728Z,12.01
2019-04-04T23:45:33.625Z,11.69
2019-04-04T23:48:05.483Z,11.51
2019-04-04T23:50:37.380Z,11.69
2019-04-04T23:53:09.155Z,11.59
2019-04-04T23:55:40.375Z,11.78
2019-04-04T23:58:12.286Z,12.04
